Time;durP1;ratioP1;P1;durP2;ratioP2;P2;SDS_P1;SDS_P2;PMS_P1;PMS_P2;Temp;Humidity;BMP_temperature;BMP_pressure;BME280_temperature;BME280_humidity;BME280_pressure;Samples;Min_cycle;Max_cycle;Signal;HPM_P1;HPM_P2
2022/08/18 00:03:07;;;;;;;13.25;10.13;;;;;;;22.55;67.36;98919.72;8504117;27;20143;-84
2022/08/18 00:07:17;;;;;;;19.48;10.75;;;;;;;22.51;67.25;98918.94;8519800;27;20050;-83
2022/08/18 00:11:18;;;;;;;15.57;10.65;;;;;;;22.45;67.69;98917.75;8505465;27;20046;-84
2022/08/18 00:15:19;;;;;;;23.52;11.32;;;;;;;22.41;67.67;98914.22;8437053;28;20067;-83
2022/08/18 00:19:22;;;;;;;18.70;11.75;;;;;;;22.42;67.83;98926.78;8448019;28;20048;-83
2022/08/18 00:23:23;;;;;;;17.25;10.90;;;;;;;22.42;67.98;98921.28;8468314;27;20123;-82
2022/08/18 00:27:30;;;;;;;16.88;10.95;;;;;;;22.40;68.09;98929.13;8443749;28;20082;-82
2022/08/18 00:31:32;;;;;;;19.92;12.73;;;;;;;22.37;68.48;98924.41;8452852;28;20052;-82
2022/08/18 00:35:37;;;;;;;19.92;11.80;;;;;;;22.32;68.59;98915.38;8469983;27;20047;-83
2022/08/18 00:39:38;;;;;;;23.40;13.02;;;;;;;22.25;69.16;98912.63;8459860;28;20044;-83
2022/08/18 00:43:45;;;;;;;19.08;12.10;;;;;;;22.19;69.15;98919.69;8460609;28;20408;-82
2022/08/18 00:47:46;;;;;;;24.87;12.30;;;;;;;22.13;69.30;98918.50;8447154;28;20472;-82
2022/08/18 00:51:49;;;;;;;20.17;13.07;;;;;;;22.08;69.70;98923.59;8454789;28;20093;-82
2022/08/18 00:55:51;;;;;;;24.20;13.40;;;;;;;22.02;69.91;98925.94;8449392;28;20051;-83
2022/08/18 01:00:11;;;;;;;20.33;13.70;;;;;;;21.95;70.10;98920.41;8440137;28;20040;-83
2022/08/18 01:04:21;;;;;;;19.25;12.65;;;;;;;21.88;70.51;98914.88;8461585;28;20047;-84
2022/08/18 01:08:22;;;;;;;20.65;12.02;;;;;;;21.81;71.13;98909.34;8446380;28;20052;-84
2022/08/18 01:12:23;;;;;;;19.33;13.68;;;;;;;21.75;71.32;98905.38;8465459;27;20052;-83
2022/08/18 01:29:21;;;;;;;17.70;12.85;;;;;;;21.55;72.16;98879.41;8499497;27;19923;-83
2022/08/18 01:33:37;;;;;;;22.38;13.52;;;;;;;21.48;72.63;98891.94;8531075;27;20035;-82
2022/08/18 01:37:40;;;;;;;25.05;14.65;;;;;;;21.48;72.78;98891.94;8529379;27;20043;-83
2022/08/18 01:41:41;;;;;;;19.00;12.77;;;;;;;21.47;73.08;98895.84;8523534;27;20086;-82
2022/08/18 01:45:41;;;;;;;25.17;13.85;;;;;;;21.45;73.17;98887.22;8457732;27;20043;-83
2022/08/18 01:49:43;;;;;;;31.45;14.18;;;;;;;21.41;73.31;98888.38;8516028;27;20054;-83
2022/08/18 01:53:45;;;;;;;20.65;14.13;;;;;;;21.35;73.72;98882.47;8535721;27;20132;-83
2022/08/18 01:57:46;;;;;;;28.27;14.27;;;;;;;21.31;74.01;98887.16;8508968;27;20535;-83
2022/08/18 02:01:47;;;;;;;22.67;14.35;;;;;;;21.24;74.34;98887.13;8498393;27;20091;-83
2022/08/18 02:05:49;;;;;;;21.83;14.65;;;;;;;21.19;74.55;98884.75;8488072;27;20054;-83
2022/08/18 02:09:50;;;;;;;26.60;14.85;;;;;;;21.15;74.70;98883.91;8493306;27;20061;-83
2022/08/18 02:13:52;;;;;;;24.17;14.90;;;;;;;21.10;75.03;98892.50;8511555;27;20058;-82
2022/08/18 02:17:52;;;;;;;21.05;14.98;;;;;;;21.02;75.21;98888.16;8515404;27;20070;-82
2022/08/18 02:21:53;;;;;;;28.70;15.68;;;;;;;20.94;75.66;98884.56;8525133;27;20051;-84
2022/08/18 02:25:54;;;;;;;24.35;15.27;;;;;;;20.87;75.99;98883.75;8522071;27;20043;-84
2022/08/18 02:29:58;;;;;;;23.25;16.20;;;;;;;20.79;76.51;98882.09;8523944;27;20049;-84
2022/08/18 02:33:59;;;;;;;22.33;15.45;;;;;;;20.76;76.72;98885.63;8512751;27;20104;-84
2022/08/18 02:38:01;;;;;;;22.70;15.55;;;;;;;20.75;76.86;98886.78;8472582;27;20504;-83
2022/08/18 02:42:06;;;;;;;24.52;15.60;;;;;;;20.73;77.07;98884.41;8522772;27;20436;-83
2022/08/18 02:46:08;;;;;;;24.30;17.13;;;;;;;20.70;77.24;98885.19;8529955;27;20042;-83
2022/08/18 02:50:09;;;;;;;24.65;16.38;;;;;;;20.73;77.44;98883.66;8522303;27;20050;-82
2022/08/18 02:54:10;;;;;;;23.77;17.75;;;;;;;20.74;77.38;98879.72;8533271;27;20411;-83
2022/08/18 02:58:12;;;;;;;27.88;18.23;;;;;;;20.73;77.63;98872.69;8516428;27;20042;-82
2022/08/18 03:02:13;;;;;;;27.15;17.55;;;;;;;20.75;77.81;98876.59;8528306;27;20046;-82
2022/08/18 03:06:14;;;;;;;25.42;17.50;;;;;;;20.75;78.44;98881.28;8524726;27;20133;-83
2022/08/18 03:10:15;;;;;;;25.35;18.30;;;;;;;20.74;78.46;98880.50;8502414;27;20045;-83
2022/08/18 03:14:16;;;;;;;25.63;18.30;;;;;;;20.75;78.43;98875.81;8517017;27;20126;-83
2022/08/18 03:18:17;;;;;;;38.70;19.80;;;;;;;20.75;78.48;98875.81;8465478;27;20077;-83
2022/08/18 03:22:18;;;;;;;31.45;19.75;;;;;;;20.74;78.85;98894.22;8511552;27;20395;-83
2022/08/18 03:26:20;;;;;;;24.08;19.05;;;;;;;20.72;79.04;98882.06;8523964;27;20057;-84
2022/08/18 03:30:22;;;;;;;25.67;18.75;;;;;;;20.72;79.10;98890.31;8526388;27;20039;-83
2022/08/18 03:34:24;;;;;;;38.25;19.52;;;;;;;20.75;79.09;98892.28;8517445;27;20039;-83
2022/08/18 03:38:25;;;;;;;28.45;19.30;;;;;;;20.76;79.08;98893.84;8530061;27;20038;-83
2022/08/18 03:42:26;;;;;;;28.55;19.92;;;;;;;20.75;79.22;98886.78;8529271;27;20146;-83
2022/08/18 03:46:27;;;;;;;30.30;19.50;;;;;;;20.75;79.50;98886.78;8506826;27;20043;-83
2022/08/18 03:50:28;;;;;;;28.10;19.73;;;;;;;20.77;79.57;98895.44;8519166;27;20452;-83
2022/08/18 03:54:32;;;;;;;27.27;19.38;;;;;;;20.78;79.60;98897.00;8485278;27;20047;-83
2022/08/18 03:58:35;;;;;;;34.63;21.73;;;;;;;20.81;79.71;98896.25;8523358;27;20038;-84
2022/08/18 04:02:39;;;;;;;33.03;21.17;;;;;;;20.82;79.67;98903.31;8518200;27;20558;-83
2022/08/18 04:06:49;;;;;;;38.05;22.23;;;;;;;20.85;80.16;98908.81;8513033;27;20035;-83
2022/08/18 04:10:50;;;;;;;34.35;21.17;;;;;;;20.88;80.23;98901.78;8506490;27;20057;-83
2022/08/18 04:14:52;;;;;;;35.88;22.20;;;;;;;20.92;80.25;98913.56;8521057;27;20058;-83
2022/08/18 04:18:53;;;;;;;30.58;22.92;;;;;;;20.94;80.54;98913.97;8503821;27;20043;-83
2022/08/18 04:22:54;;;;;;;34.45;22.15;;;;;;;20.97;80.51;98910.47;8527689;27;20062;-83
2022/08/18 04:26:56;;;;;;;41.58;22.88;;;;;;;21.02;80.72;98910.09;8520098;27;20534;-85
2022/08/18 04:30:58;;;;;;;29.70;22.80;;;;;;;21.06;80.70;98919.16;8517467;27;20050;-85
2022/08/18 04:34:59;;;;;;;35.97;23.02;;;;;;;21.12;80.72;98923.09;8528176;27;20042;-85
2022/08/18 04:39:01;;;;;;;34.97;22.90;;;;;;;21.19;80.87;98917.69;8524772;27;20495;-85
2022/08/18 04:43:02;;;;;;;34.75;22.15;;;;;;;21.25;80.88;98921.66;8509338;27;20039;-85
2022/08/18 04:47:04;;;;;;;35.15;23.23;;;;;;;21.29;80.91;98919.72;8531200;27;20467;-86
2022/08/18 04:51:08;;;;;;;40.17;24.10;;;;;;;21.33;80.93;98923.25;8518122;27;20049;-84
2022/08/18 04:55:09;;;;;;;37.15;24.70;;;;;;;21.40;81.10;98917.03;8526110;27;20043;-85
2022/08/18 04:59:12;;;;;;;37.42;25.58;;;;;;;21.49;80.94;98921.00;8528209;27;20053;-85
2022/08/18 05:03:13;;;;;;;35.47;24.13;;;;;;;21.56;81.06;98924.94;8519909;27;20043;-86
2022/08/18 05:07:19;;;;;;;44.13;25.02;;;;;;;21.66;80.89;98935.19;8528058;27;20061;-85
2022/08/18 05:11:21;;;;;;;42.15;23.05;;;;;;;21.74;80.55;98925.78;8515987;27;20118;-85
2022/08/18 05:15:22;;;;;;;32.97;23.52;;;;;;;21.81;80.62;98925.81;8456541;28;20591;-85
2022/08/18 05:19:25;;;;;;;41.50;24.67;;;;;;;21.88;80.34;98921.16;8476139;28;20485;-85
2022/08/18 05:23:28;;;;;;;37.53;23.70;;;;;;;21.97;80.35;98923.56;8454816;28;20399;-85
2022/08/18 05:27:34;;;;;;;40.45;22.52;;;;;;;22.04;80.20;98929.09;8445212;28;20147;-85
2022/08/18 05:31:34;;;;;;;37.58;23.02;;;;;;;22.10;80.24;98937.75;8461120;28;20050;-86
2022/08/18 05:35:41;;;;;;;36.63;23.05;;;;;;;22.17;80.04;98938.53;8459059;28;20048;-86
2022/08/18 05:39:56;;;;;;;32.85;23.50;;;;;;;22.24;80.07;98941.31;8460969;28;20059;-85
2022/08/18 05:43:59;;;;;;;39.25;23.70;;;;;;;22.32;79.94;98940.13;8474880;28;20031;-84
2022/08/18 05:48:00;;;;;;;34.10;22.42;;;;;;;22.39;79.84;98949.56;8455783;28;20051;-83
2022/08/18 05:52:07;;;;;;;40.55;23.10;;;;;;;22.42;79.70;98943.31;8458824;28;20052;-82
2022/08/18 06:00:30;;;;;;;38.85;23.08;;;;;;;22.63;79.41;98948.81;8451825;28;20048;-84
2022/08/18 06:04:48;;;;;;;34.08;22.83;;;;;;;22.73;79.55;98956.31;8458146;28;20100;-84
2022/08/18 06:09:09;;;;;;;36.53;22.57;;;;;;;22.88;79.15;98960.66;8462389;28;20051;-83
2022/08/18 06:13:10;;;;;;;38.17;23.10;;;;;;;22.99;79.17;98955.91;8476395;27;20051;-84
2022/08/18 06:17:22;;;;;;;37.30;22.08;;;;;;;23.09;78.74;98960.63;8530517;27;20103;-83
2022/08/18 06:21:42;;;;;;;36.15;21.65;;;;;;;23.21;78.46;98951.19;8502966;27;20102;-87
2022/08/18 06:26:04;;;;;;;36.13;22.05;;;;;;;23.33;78.36;98952.69;8533316;27;20053;-86
2022/08/18 06:30:20;;;;;;;30.05;19.98;;;;;;;23.41;78.19;98954.28;8523215;27;20141;-86
2022/08/18 06:34:24;;;;;;;30.40;20.55;;;;;;;23.46;77.95;98951.13;8533647;27;20054;-84
2022/08/18 06:39:02;;;;;;;34.08;20.13;;;;;;;23.51;77.51;98947.97;8520590;27;20440;-84
2022/08/18 06:43:06;;;;;;;29.90;19.52;;;;;;;23.55;77.21;98954.25;8516830;27;20634;-85
2022/08/18 06:47:16;;;;;;;35.08;20.23;;;;;;;23.61;76.81;98952.66;8506523;27;20038;-84
2022/08/18 06:51:19;;;;;;;25.13;19.20;;;;;;;23.67;76.71;98945.56;8534184;27;20574;-86
2022/08/18 06:55:34;;;;;;;28.15;18.00;;;;;;;23.75;76.77;98949.84;8515869;27;20038;-85
2022/08/18 06:59:37;;;;;;;28.13;18.90;;;;;;;23.86;76.41;98956.09;8534631;27;20046;-84
2022/08/18 07:03:38;;;;;;;28.42;18.33;;;;;;;23.96;76.28;98963.53;8532950;27;20137;-86
2022/08/18 07:07:40;;;;;;;32.42;18.48;;;;;;;24.05;76.04;98959.56;8528354;27;20702;-84
2022/08/18 07:11:57;;;;;;;29.55;18.35;;;;;;;24.11;75.54;98957.97;8529432;27;20047;-90
2022/08/18 07:16:27;;;;;;;36.70;17.87;;;;;;;24.20;75.40;98950.84;8506416;27;20043;-85
2022/08/18 07:20:30;;;;;;;31.45;18.58;;;;;;;24.30;75.37;98960.25;8521996;27;20456;-85
2022/08/18 07:24:34;;;;;;;29.00;17.98;;;;;;;24.39;74.64;98957.81;8501798;27;20479;-85
2022/08/18 07:28:43;;;;;;;31.00;18.45;;;;;;;24.50;74.57;98958.53;8513752;27;20487;-83
2022/08/18 07:32:49;;;;;;;30.30;17.55;;;;;;;24.60;74.45;98946.63;8496246;27;20055;-85
2022/08/18 07:36:59;;;;;;;30.45;17.17;;;;;;;24.73;74.06;98947.72;8496606;27;20074;-88
2022/08/18 07:41:06;;;;;;;36.08;17.15;;;;;;;24.86;73.50;98947.19;8503446;27;20054;-85
2022/08/18 07:45:34;;;;;;;32.47;16.98;;;;;;;24.97;73.50;98942.41;8519659;27;20410;-85
2022/08/18 07:49:36;;;;;;;26.53;16.63;;;;;;;25.08;72.81;98948.59;8531562;27;20053;-85
2022/08/18 07:53:48;;;;;;;34.15;17.15;;;;;;;25.20;72.79;98950.88;8513149;27;20085;-85
2022/08/18 07:58:01;;;;;;;22.63;15.45;;;;;;;25.34;72.52;98960.97;8512509;27;20043;-86
2022/08/18 08:02:18;;;;;;;27.50;16.65;;;;;;;25.48;72.13;98967.16;8518121;27;20126;-85
2022/08/18 08:06:28;;;;;;;25.58;15.75;;;;;;;25.57;71.87;98967.47;8517252;27;20639;-85
2022/08/18 08:10:38;;;;;;;22.92;16.70;;;;;;;25.64;71.65;98970.16;8499318;27;20460;-87
2022/08/18 08:14:44;;;;;;;24.70;15.77;;;;;;;25.75;71.62;98969.25;8487879;27;20516;-85
2022/08/18 08:18:57;;;;;;;24.30;15.07;;;;;;;25.90;70.83;98973.44;8492929;27;20043;-87
2022/08/18 08:23:04;;;;;;;20.88;14.68;;;;;;;26.00;70.17;98975.25;8447856;27;20054;-86
2022/08/18 08:27:15;;;;;;;27.48;14.70;;;;;;;26.12;69.56;98983.00;8524315;27;20042;-88
2022/08/18 08:31:52;;;;;;;25.00;14.48;;;;;;;26.26;67.86;98982.06;8515876;27;20039;-84
2022/08/18 08:36:07;;;;;;;23.83;13.88;;;;;;;26.39;66.98;98992.16;8501926;27;20042;-86
2022/08/18 08:40:26;;;;;;;20.55;13.35;;;;;;;26.54;66.48;98991.97;8512428;27;20038;-84
2022/08/18 08:44:58;;;;;;;28.35;14.98;;;;;;;26.69;66.01;98998.84;8512565;27;20074;-85
2022/08/18 08:49:08;;;;;;;21.63;14.45;;;;;;;26.84;66.23;99000.19;8502607;27;20061;-86
2022/08/18 08:53:19;;;;;;;27.60;14.25;;;;;;;27.00;65.56;99008.66;8480911;27;20126;-84
2022/08/18 08:57:21;;;;;;;22.90;14.45;;;;;;;27.13;63.99;99006.84;8520417;27;20042;-86
2022/08/18 09:01:41;;;;;;;18.23;13.93;;;;;;;27.23;63.31;99000.34;8483843;27;20043;-87
2022/08/18 09:05:55;;;;;;;21.70;14.18;;;;;;;27.37;62.82;98998.53;8515695;27;20478;-87
2022/08/18 09:10:27;;;;;;;23.30;14.32;;;;;;;27.52;62.24;98994.31;8528154;27;20124;-85
2022/08/18 09:14:49;;;;;;;20.98;13.10;;;;;;;27.61;61.94;98992.53;8529914;27;21190;-87
2022/08/18 09:18:54;;;;;;;21.23;13.20;;;;;;;27.70;61.42;98989.22;8530436;27;20480;-86
2022/08/18 09:23:07;;;;;;;21.45;13.02;;;;;;;27.88;60.69;98981.31;8511527;27;20054;-86
2022/08/18 09:27:23;;;;;;;23.52;13.55;;;;;;;28.05;60.95;98988.50;8528168;27;20410;-87
2022/08/18 09:31:25;;;;;;;32.33;12.52;;;;;;;28.22;60.82;98988.56;8515992;27;20083;-86
2022/08/18 09:35:36;;;;;;;19.02;11.25;;;;;;;28.40;59.11;98986.16;8501872;27;20046;-85
2022/08/18 09:44:11;;;;;;;21.02;11.43;;;;;;;28.57;57.64;98979.41;8464134;28;20062;-86
2022/08/18 09:48:11;;;;;;;23.90;12.00;;;;;;;28.65;57.79;98980.84;8464144;28;20051;-84
2022/08/18 09:52:21;;;;;;;18.90;11.32;;;;;;;28.75;56.91;98979.81;8464529;28;20051;-85
2022/08/18 09:56:50;;;;;;;16.48;10.65;;;;;;;28.72;55.97;98964.00;8437650;27;20061;-89
2022/08/18 10:01:28;;;;;;;20.05;11.35;;;;;;;28.80;57.12;98959.84;8480396;27;20047;-85
2022/08/18 10:05:30;;;;;;;18.65;10.45;;;;;;;29.00;55.84;98950.63;8466997;27;21599;-86
2022/08/18 10:09:51;;;;;;;19.27;10.90;;;;;;;29.12;54.97;98952.69;8459112;27;20169;-86
2022/08/18 10:13:58;;;;;;;20.40;9.75;;;;;;;29.23;55.11;98947.63;8448762;27;20428;-86
2022/08/18 10:18:29;;;;;;;16.38;9.65;;;;;;;29.25;54.28;98934.84;8468535;27;20125;-85
2022/08/18 10:22:46;;;;;;;15.82;10.25;;;;;;;29.35;53.87;98921.88;8529574;27;20038;-86
2022/08/18 10:26:50;;;;;;;18.88;11.00;;;;;;;29.39;53.52;98922.59;8521636;27;20042;-85
2022/08/18 10:31:20;;;;;;;15.82;9.75;;;;;;;29.50;53.27;98900.81;8532258;27;20041;-85
2022/08/18 10:35:36;;;;;;;24.48;10.73;;;;;;;29.63;53.18;98892.50;8426509;28;20578;-87
2022/08/18 10:39:37;;;;;;;15.70;9.00;;;;;;;29.77;52.41;98898.41;8417505;28;20056;-85
2022/08/18 10:43:43;;;;;;;14.55;9.27;;;;;;;29.83;50.86;98895.06;8424822;28;20520;-85
2022/08/18 10:48:09;;;;;;;14.10;9.35;;;;;;;29.93;50.52;98894.03;8420081;28;20126;-87
2022/08/18 10:53:07;;;;;;;16.02;9.65;;;;;;;29.97;48.99;98894.69;8401849;28;20041;-86
2022/08/18 10:57:40;;;;;;;12.52;9.23;;;;;;;29.98;49.13;98897.03;8326438;28;20423;-87
2022/08/18 11:02:03;;;;;;;16.02;9.10;;;;;;;29.86;48.87;98894.22;8293892;28;20068;-86
2022/08/18 11:06:07;;;;;;;14.02;9.43;;;;;;;29.94;49.36;98906.72;8293660;28;20042;-86
2022/08/18 11:10:22;;;;;;;13.15;9.02;;;;;;;30.13;49.60;98887.03;8296919;28;20580;-85
2022/08/18 11:14:36;;;;;;;16.55;9.60;;;;;;;30.34;49.53;98890.34;8354304;28;20052;-86
2022/08/18 11:18:47;;;;;;;22.20;10.05;;;;;;;30.42;49.61;98875.75;8335648;28;20461;-85
2022/08/18 11:22:56;;;;;;;17.55;10.07;;;;;;;30.53;49.08;98876.19;8358445;28;20052;-84
2022/08/18 11:27:02;;;;;;;12.38;10.02;;;;;;;30.61;49.05;98883.09;8411383;28;20067;-84
2022/08/18 11:31:04;;;;;;;16.48;9.75;;;;;;;30.67;48.34;98880.50;8452323;27;20078;-83
2022/08/18 11:35:05;;;;;;;22.58;10.25;;;;;;;30.78;47.83;98880.16;8515851;27;20042;-85
2022/08/18 11:39:10;;;;;;;17.02;9.50;;;;;;;30.91;47.69;98878.91;8515040;27;20045;-83
2022/08/18 11:43:27;;;;;;;15.60;10.48;;;;;;;31.00;46.68;98872.63;8528391;27;20149;-84
2022/08/18 11:47:29;;;;;;;19.10;11.02;;;;;;;31.05;47.27;98858.13;8508262;27;20034;-84
2022/08/18 11:51:32;;;;;;;13.48;10.52;;;;;;;31.15;47.50;98862.53;8525447;27;20045;-83
2022/08/18 11:55:33;;;;;;;16.25;11.85;;;;;;;31.28;47.44;98851.31;8501751;27;20093;-85
2022/08/18 11:59:35;;;;;;;13.30;9.68;;;;;;;31.38;46.64;98848.16;8497426;27;20084;-85
2022/08/18 12:03:41;;;;;;;21.60;11.82;;;;;;;31.37;45.98;98843.78;8527720;27;20499;-84
2022/08/18 12:07:42;;;;;;;23.02;11.63;;;;;;;31.37;45.69;98838.22;8496122;27;20043;-83
2022/08/18 12:12:17;;;;;;;15.75;10.90;;;;;;;31.44;46.32;98849.13;8517771;27;20043;-84
2022/08/18 12:16:42;;;;;;;21.58;12.02;;;;;;;31.53;45.51;98844.81;8356814;28;20075;-85
2022/08/18 12:20:43;;;;;;;14.82;10.57;;;;;;;31.65;45.74;98846.78;8322201;28;20053;-83
2022/08/18 12:24:45;;;;;;;13.02;10.05;;;;;;;31.69;44.81;98837.03;8354856;28;20059;-86
2022/08/18 12:28:46;;;;;;;14.77;9.68;;;;;;;31.71;45.03;98844.97;8367795;28;20494;-84
2022/08/18 12:32:47;;;;;;;19.90;9.70;;;;;;;31.88;44.05;98843.50;8372004;28;20059;-85
2022/08/18 12:36:50;;;;;;;14.98;9.13;;;;;;;32.06;44.09;98837.97;8325996;28;20049;-83
2022/08/18 12:40:52;;;;;;;20.45;10.40;;;;;;;32.16;43.52;98831.19;8360022;28;20043;-84
2022/08/18 12:44:53;;;;;;;17.33;8.65;;;;;;;32.30;43.21;98829.09;8340524;28;20624;-85
2022/08/18 12:48:56;;;;;;;19.35;8.43;;;;;;;31.94;42.52;98841.63;8368789;28;20103;-84
2022/08/18 12:52:58;;;;;;;18.52;8.25;;;;;;;31.46;43.23;98855.00;8468700;27;20138;-85
2022/08/18 12:56:59;;;;;;;13.07;8.30;;;;;;;31.08;44.28;98854.44;8525513;27;20475;-83
2022/08/18 13:01:00;;;;;;;12.50;8.52;;;;;;;30.96;45.35;98858.03;8522791;27;20058;-84
2022/08/18 13:05:01;;;;;;;13.90;8.85;;;;;;;30.98;45.15;98866.72;8526521;27;20197;-82
2022/08/18 13:09:03;;;;;;;14.52;8.55;;;;;;;31.35;44.81;98863.03;8519628;27;20043;-83
2022/08/18 13:13:04;;;;;;;14.68;8.68;;;;;;;31.14;45.06;98863.78;8500938;27;20055;-84
2022/08/18 13:17:05;;;;;;;20.92;8.77;;;;;;;31.27;45.12;98855.34;8523294;27;20042;-84
2022/08/18 13:21:15;;;;;;;19.17;8.30;;;;;;;31.19;45.01;98859.63;8516187;27;20043;-84
2022/08/18 13:25:16;;;;;;;13.20;9.07;;;;;;;31.38;44.98;98856.50;8523805;27;20483;-84
2022/08/18 13:29:18;;;;;;;15.00;9.07;;;;;;;31.56;44.83;98846.72;8523732;27;20034;-84
2022/08/18 13:33:19;;;;;;;16.23;9.18;;;;;;;32.73;41.97;98845.63;8525010;27;20043;-85
2022/08/18 13:37:22;;;;;;;20.52;8.70;;;;;;;33.99;39.43;98836.78;8522106;27;20164;-86
2022/08/18 13:41:23;;;;;;;19.75;9.15;;;;;;;35.18;37.63;98837.59;8524240;27;20047;-86
2022/08/18 13:45:25;;;;;;;12.65;8.07;;;;;;;36.29;36.31;98830.28;8520489;27;20046;-86
2022/08/18 13:49:26;;;;;;;15.68;9.32;;;;;;;37.30;34.68;98826.69;8526325;27;20042;-86
2022/08/18 13:53:28;;;;;;;9.98;7.68;;;;;;;37.99;33.89;98826.28;8522817;27;20062;-86
2022/08/18 13:57:30;;;;;;;14.32;7.72;;;;;;;38.62;32.53;98831.03;8509427;27;20788;-87
2022/08/18 14:01:31;;;;;;;12.45;6.80;;;;;;;39.29;31.87;98832.03;8522560;27;20519;-87
2022/08/18 14:05:33;;;;;;;13.18;7.78;;;;;;;39.91;30.84;98827.25;8501937;27;20453;-86
2022/08/18 14:09:34;;;;;;;12.25;7.10;;;;;;;40.06;29.87;98814.38;8522699;27;20115;-87
2022/08/18 14:13:35;;;;;;;13.68;7.95;;;;;;;40.13;29.04;98829.28;8523423;27;20051;-94
2022/08/18 14:17:37;;;;;;;12.70;6.60;;;;;;;39.94;28.92;98823.38;8522234;27;20035;-85
2022/08/18 14:30:29;;;;;;;10.45;6.90;;;;;;;40.92;27.92;98808.72;8520713;27;20046;-85
2022/08/18 14:34:30;;;;;;;11.07;6.78;;;;;;;38.99;30.08;98802.72;8529176;27;20106;-85
2022/08/18 14:38:32;;;;;;;9.82;7.00;;;;;;;36.46;32.84;98788.34;8526201;27;20043;-85
2022/08/18 14:42:33;;;;;;;15.73;7.18;;;;;;;35.83;34.10;98773.91;8528549;27;20495;-85
2022/08/18 14:46:34;;;;;;;11.68;8.27;;;;;;;36.53;33.15;98765.41;8522696;27;20062;-83
2022/08/18 14:50:35;;;;;;;16.05;7.53;;;;;;;36.51;33.12;98779.19;8531442;27;20062;-84
2022/08/18 14:54:37;;;;;;;9.10;6.90;;;;;;;36.76;32.41;98762.38;8524677;27;20245;-85
2022/08/18 14:58:39;;;;;;;12.75;7.32;;;;;;;36.31;32.49;98766.69;8523155;27;20542;-90
2022/08/18 15:02:42;;;;;;;11.13;7.38;;;;;;;35.40;33.56;98767.81;8517642;27;20500;-88
2022/08/18 15:06:43;;;;;;;15.23;7.40;;;;;;;34.80;34.31;98776.66;8510960;27;20042;-89
2022/08/18 15:10:44;;;;;;;13.85;7.57;;;;;;;34.73;35.05;98783.44;8525143;27;20057;-88
2022/08/18 15:14:47;;;;;;;13.70;7.35;;;;;;;34.38;35.38;98779.59;8522393;27;20047;-89
2022/08/18 15:18:48;;;;;;;11.25;7.57;;;;;;;33.68;36.27;98773.44;8474580;27;20502;-90
2022/08/18 15:27:10;;;;;;;14.88;8.13;;;;;;;33.06;37.84;98773.06;8520225;27;20122;-90
2022/08/18 15:31:11;;;;;;;13.55;8.88;;;;;;;32.77;38.60;98790.34;8477071;27;20121;-91
2022/08/18 15:35:15;;;;;;;59.58;9.40;;;;;;;32.50;42.37;98798.69;8528498;27;20103;-87
2022/08/18 15:39:16;;;;;;;18.15;7.68;;;;;;;31.85;43.10;98794.13;8515343;27;20039;-85
2022/08/18 15:43:18;;;;;;;20.15;8.73;;;;;;;31.65;42.18;98796.53;8523569;27;20046;-85
2022/08/18 15:47:19;;;;;;;13.73;8.00;;;;;;;31.69;41.67;98802.75;8495296;27;20046;-87
2022/08/18 15:51:20;;;;;;;17.15;8.70;;;;;;;31.61;41.38;98801.50;8516206;27;20058;-86
2022/08/18 15:55:22;;;;;;;10.75;7.93;;;;;;;31.35;41.35;98790.47;8456942;27;20053;-85
2022/08/18 15:59:24;;;;;;;13.88;8.23;;;;;;;31.14;41.44;98796.84;8511096;27;20518;-87
2022/08/18 16:03:25;;;;;;;15.70;9.05;;;;;;;31.03;42.10;98790.88;8525885;27;20047;-90
2022/08/18 16:07:27;;;;;;;12.70;8.68;;;;;;;31.03;42.29;98785.31;8468441;27;20129;-90
2022/08/18 16:11:29;;;;;;;13.77;8.55;;;;;;;30.97;42.47;98767.56;8516081;27;20062;-92
2022/08/18 16:15:34;;;;;;;12.20;7.70;;;;;;;30.86;42.40;98775.53;8490009;27;20051;-91
2022/08/18 16:19:36;;;;;;;12.43;8.15;;;;;;;30.79;42.60;98770.22;8520787;27;20047;-91
2022/08/18 16:23:38;;;;;;;20.67;7.82;;;;;;;30.68;42.48;98773.38;8465672;27;20043;-90
2022/08/18 16:27:41;;;;;;;13.57;8.27;;;;;;;30.57;42.75;98754.25;8503014;27;20482;-85
2022/08/18 16:31:45;;;;;;;15.23;7.57;;;;;;;30.45;42.41;98746.69;8491067;27;20148;-86
2022/08/18 16:35:48;;;;;;;15.00;8.25;;;;;;;30.36;42.79;98743.81;8503421;27;20126;-87
2022/08/18 16:39:50;;;;;;;11.65;8.00;;;;;;;30.25;42.79;98732.25;8510776;27;20031;-86
2022/08/18 16:43:50;;;;;;;12.02;7.88;;;;;;;30.13;43.33;98730.28;8487888;27;20046;-86
2022/08/18 16:47:52;;;;;;;11.20;8.63;;;;;;;30.03;43.25;98717.50;8493882;27;20076;-85
2022/08/18 16:51:54;;;;;;;12.18;8.48;;;;;;;29.90;43.90;98711.19;8501761;27;20441;-85
2022/08/18 16:55:55;;;;;;;14.82;9.20;;;;;;;29.82;43.91;98698.69;8512379;27;20043;-86
2022/08/18 17:04:19;;;;;;;14.73;8.77;;;;;;;29.52;44.94;98692.47;8520417;27;20035;-86
2022/08/18 17:08:20;;;;;;;14.05;8.40;;;;;;;29.41;45.21;98697.59;8521450;27;20523;-85
2022/08/18 17:12:22;;;;;;;26.02;10.73;;;;;;;29.30;45.48;98691.56;8505696;27;20061;-85
2022/08/18 17:16:25;;;;;;;16.98;9.07;;;;;;;29.15;46.19;98696.00;8516914;27;20038;-85
2022/08/18 17:20:26;;;;;;;19.75;9.40;;;;;;;29.05;46.66;98702.66;8519228;27;20031;-85
2022/08/18 17:24:27;;;;;;;23.67;8.88;;;;;;;28.94;46.83;98697.41;8524143;27;20035;-86
2022/08/18 17:28:38;;;;;;;12.55;8.82;;;;;;;28.85;46.96;98700.06;8487055;27;20484;-85
2022/08/18 17:32:47;;;;;;;9.90;8.15;;;;;;;28.78;47.28;98705.81;8471038;28;20099;-84
2022/08/18 17:36:54;;;;;;;13.73;8.40;;;;;;;28.63;47.23;98710.97;8434597;28;20097;-86
2022/08/18 17:40:56;;;;;;;17.43;9.27;;;;;;;28.52;47.65;98711.28;8444787;28;20043;-84
2022/08/18 17:45:00;;;;;;;13.25;8.20;;;;;;;28.41;47.61;98710.00;8420229;28;20615;-85
2022/08/18 17:54:22;;;;;;;16.10;9.10;;;;;;;28.23;48.21;98726.34;8337205;28;20056;-87
2022/08/18 17:58:46;;;;;;;16.38;8.57;;;;;;;28.08;48.43;98732.22;8333978;28;20053;-85
2022/08/18 18:02:48;;;;;;;17.20;9.10;;;;;;;27.99;48.90;98734.84;8355298;28;20053;-87
2022/08/18 18:06:48;;;;;;;15.93;8.90;;;;;;;27.89;49.66;98746.19;8364268;28;20045;-87
2022/08/18 18:10:50;;;;;;;13.40;8.27;;;;;;;27.81;50.17;98756.72;8361151;28;20057;-86
2022/08/18 18:14:51;;;;;;;20.15;9.23;;;;;;;27.69;50.36;98760.94;8359070;28;20102;-92
2022/08/18 18:19:01;;;;;;;15.93;9.02;;;;;;;27.63;50.52;98772.97;8372098;28;20565;-88
2022/08/18 18:23:20;;;;;;;16.35;9.38;;;;;;;27.56;50.84;98781.44;8418662;27;20068;-87
2022/08/18 18:27:28;;;;;;;12.93;9.40;;;;;;;27.50;51.29;98791.47;8426746;28;20048;-87
2022/08/18 18:31:30;;;;;;;13.63;9.25;;;;;;;27.43;51.63;98780.53;8426858;28;20098;-85
2022/08/18 18:35:48;;;;;;;18.25;9.65;;;;;;;27.34;51.76;98783.13;8406307;28;20068;-87
2022/08/18 18:40:03;;;;;;;16.50;9.65;;;;;;;27.25;52.19;98792.78;8362947;28;20048;-87
2022/08/18 18:44:08;;;;;;;13.07;9.55;;;;;;;27.18;52.40;98798.47;8409947;28;20046;-87
2022/08/18 18:48:18;;;;;;;19.02;9.40;;;;;;;27.10;52.82;98791.50;8421850;28;20143;-84
2022/08/18 18:52:35;;;;;;;22.55;10.48;;;;;;;27.06;53.05;98785.25;8421219;28;20063;-84
2022/08/18 18:56:44;;;;;;;17.92;9.48;;;;;;;27.00;53.48;98786.97;8444285;27;20055;-83
2022/08/18 19:01:01;;;;;;;14.95;10.07;;;;;;;26.94;53.84;98783.13;8501385;27;20492;-82
2022/08/18 19:05:13;;;;;;;16.95;9.65;;;;;;;26.89;54.12;98772.53;8520943;27;20050;-82
2022/08/18 19:09:28;;;;;;;16.77;9.70;;;;;;;26.85;54.30;98769.03;8523363;27;20125;-82
2022/08/18 19:13:33;;;;;;;15.57;10.20;;;;;;;26.77;54.79;98767.59;8503868;27;20385;-83
2022/08/18 19:18:04;;;;;;;15.00;9.10;;;;;;;26.70;54.96;98762.19;8522831;27;20139;-83
2022/08/18 19:22:21;;;;;;;16.73;9.57;;;;;;;26.65;55.43;98754.38;8370770;28;20067;-85
2022/08/18 19:26:28;;;;;;;18.50;9.50;;;;;;;26.61;55.71;98742.56;8362399;28;20095;-82
2022/08/18 19:30:32;;;;;;;16.13;9.93;;;;;;;26.56;56.09;98735.53;8377148;28;20055;-81
2022/08/18 19:34:40;;;;;;;16.63;9.60;;;;;;;26.51;56.25;98721.41;8372944;28;20419;-84
2022/08/18 19:38:53;;;;;;;19.30;9.73;;;;;;;26.46;56.28;98709.63;8362697;28;20102;-83
2022/08/18 19:43:03;;;;;;;22.80;10.23;;;;;;;26.39;56.69;98687.59;8372364;28;20041;-84